Time;durP1;ratioP1;P1;durP2;ratioP2;P2;SDS_P1;SDS_P2;PMS_P1;PMS_P2;Temp;Humidity;BMP_temperature;BMP_pressure;BME280_temperature;BME280_humidity;BME280_pressure;Samples;Min_cycle;Max_cycle;Signal;HPM_P1;HPM_P2
2023/10/19 00:01:06;;;;;;;18.55;13.13;;;;;;;;;;5010834;28;20731;-66
2023/10/19 00:03:31;;;;;;;18.77;13.63;;;;;;;;;;5011515;28;20262;-66
2023/10/19 00:05:57;;;;;;;17.15;13.13;;;;;;;;;;5011255;28;20215;-65
2023/10/19 00:08:23;;;;;;;18.10;13.52;;;;;;;;;;5012940;28;20620;-66
2023/10/19 00:11:08;;;;;;;19.23;13.52;;;;;;;;;;5010998;28;20199;-66
2023/10/19 00:13:40;;;;;;;19.70;14.20;;;;;;;;;;5010443;28;20193;-65
2023/10/19 00:16:16;;;;;;;19.90;13.85;;;;;;;;;;5011511;28;20233;-66
2023/10/19 00:18:42;;;;;;;20.83;14.50;;;;;;;;;;5012446;28;20595;-66
2023/10/19 00:21:19;;;;;;;19.25;14.65;;;;;;;;;;5010747;28;20229;-66
2023/10/19 00:23:47;;;;;;;21.80;13.20;;;;;;;;;;5008239;28;20185;-66
2023/10/19 00:26:17;;;;;;;21.13;14.93;;;;;;;;;;5009924;28;20631;-66
2023/10/19 00:28:45;;;;;;;21.25;14.93;;;;;;;;;;5011090;28;20175;-65
2023/10/19 00:31:11;;;;;;;18.20;14.15;;;;;;;;;;5010418;28;20226;-65
2023/10/19 00:33:40;;;;;;;19.50;14.32;;;;;;;;;;5009896;28;20689;-65
2023/10/19 00:36:09;;;;;;;21.42;14.57;;;;;;;;;;5010936;28;20174;-65
2023/10/19 00:41:07;;;;;;;19.92;14.68;;;;;;;;;;5010245;28;20203;-66
2023/10/19 00:43:34;;;;;;;21.88;14.88;;;;;;;;;;5010443;28;20269;-65
2023/10/19 00:46:04;;;;;;;20.27;16.30;;;;;;;;;;5009842;28;20712;-66
2023/10/19 00:48:32;;;;;;;19.23;14.80;;;;;;;;;;5011370;28;20190;-66
2023/10/19 00:51:09;;;;;;;18.73;15.57;;;;;;;;;;5009809;28;20199;-65
2023/10/19 00:53:36;;;;;;;22.65;16.25;;;;;;;;;;5008479;28;20171;-65
2023/10/19 00:56:05;;;;;;;21.98;15.32;;;;;;;;;;5010717;28;20275;-65
2023/10/19 00:58:31;;;;;;;23.77;16.08;;;;;;;;;;5010616;28;20177;-66
2023/10/19 01:00:56;;;;;;;23.02;15.57;;;;;;;;;;5010219;28;20210;-66
2023/10/19 01:03:21;;;;;;;21.92;15.77;;;;;;;;;;5011913;28;20167;-65
2023/10/19 01:05:50;;;;;;;24.85;15.18;;;;;;;;;;5011145;28;20232;-65
2023/10/19 01:08:30;;;;;;;24.30;16.05;;;;;;;;;;5011712;28;20182;-66
2023/10/19 01:10:57;;;;;;;20.45;15.75;;;;;;;;;;5009009;28;20187;-66
2023/10/19 01:13:26;;;;;;;21.48;16.17;;;;;;;;;;5011148;28;20635;-65
2023/10/19 01:15:52;;;;;;;19.75;14.85;;;;;;;;;;5010996;28;20186;-65
2023/10/19 01:18:17;;;;;;;22.20;15.27;;;;;;;;;;5011250;28;20179;-66
2023/10/19 01:20:50;;;;;;;21.55;14.77;;;;;;;;;;5011263;28;20191;-66
2023/10/19 01:23:25;;;;;;;20.23;14.50;;;;;;;;;;5009746;28;20738;-65
2023/10/19 01:33:57;;;;;;;22.35;15.25;;;;;;;;;;5009234;28;20175;-65
2023/10/19 01:38:48;;;;;;;21.25;14.57;;;;;;;;;;5010475;28;20262;-66
2023/10/19 01:41:13;;;;;;;19.98;13.23;;;;;;;;;;5009594;28;20222;-66
2023/10/19 01:43:42;;;;;;;19.85;14.30;;;;;;;;;;5011212;28;20704;-65
2023/10/19 01:46:11;;;;;;;18.70;12.95;;;;;;;;;;5010465;28;20203;-65
2023/10/19 01:48:43;;;;;;;19.08;13.68;;;;;;;;;;5008681;28;20163;-65
2023/10/19 01:51:15;;;;;;;17.75;12.10;;;;;;;;;;5010725;28;21068;-64
2023/10/19 01:53:44;;;;;;;18.65;12.57;;;;;;;;;;5010877;28;20293;-65
2023/10/19 01:56:12;;;;;;;19.08;12.02;;;;;;;;;;5009826;28;20182;-66
2023/10/19 01:58:39;;;;;;;20.05;13.25;;;;;;;;;;5005478;28;20222;-65
2023/10/19 02:01:20;;;;;;;19.50;12.23;;;;;;;;;;5009217;28;20752;-65
2023/10/19 02:03:45;;;;;;;16.92;11.88;;;;;;;;;;5007973;28;20712;-65
2023/10/19 02:08:56;;;;;;;16.35;11.65;;;;;;;;;;5010452;28;20175;-65
2023/10/19 02:11:22;;;;;;;21.67;12.88;;;;;;;;;;5006991;28;20191;-65
2023/10/19 02:13:49;;;;;;;18.63;12.65;;;;;;;;;;5008730;28;20185;-65
2023/10/19 02:16:15;;;;;;;17.90;11.77;;;;;;;;;;5007840;28;20179;-65
2023/10/19 02:18:42;;;;;;;18.45;11.98;;;;;;;;;;5009386;28;20206;-65
2023/10/19 02:21:07;;;;;;;15.60;11.45;;;;;;;;;;5008781;28;20210;-65
2023/10/19 02:23:35;;;;;;;14.85;9.82;;;;;;;;;;5009732;28;20233;-65
2023/10/19 02:26:02;;;;;;;15.60;11.05;;;;;;;;;;5012883;28;20207;-66
2023/10/19 02:28:31;;;;;;;15.40;11.35;;;;;;;;;;5013120;28;20555;-65
2023/10/19 02:30:57;;;;;;;14.30;10.00;;;;;;;;;;5012670;28;20210;-66
2023/10/19 02:33:22;;;;;;;14.48;10.20;;;;;;;;;;5010458;28;20579;-66
2023/10/19 02:35:47;;;;;;;15.70;11.27;;;;;;;;;;5012112;28;20175;-66
2023/10/19 02:38:13;;;;;;;17.63;11.35;;;;;;;;;;5014368;28;20187;-65
2023/10/19 02:40:38;;;;;;;14.10;10.48;;;;;;;;;;5012745;28;20298;-66
2023/10/19 02:43:04;;;;;;;12.57;9.20;;;;;;;;;;5011445;28;20615;-65
2023/10/19 02:45:30;;;;;;;15.32;9.55;;;;;;;;;;5012742;28;20198;-66
2023/10/19 02:47:57;;;;;;;14.50;9.77;;;;;;;;;;5014544;28;20179;-65
2023/10/19 02:50:23;;;;;;;13.00;9.60;;;;;;;;;;5013714;28;20207;-65
2023/10/19 02:52:48;;;;;;;15.50;8.93;;;;;;;;;;5011565;28;20738;-65
2023/10/19 02:55:16;;;;;;;14.52;9.55;;;;;;;;;;5012399;28;20203;-65
2023/10/19 02:57:41;;;;;;;12.05;8.93;;;;;;;;;;5013288;28;20175;-66
2023/10/19 03:00:14;;;;;;;12.05;8.57;;;;;;;;;;5012259;28;20206;-66
2023/10/19 03:02:39;;;;;;;14.27;8.85;;;;;;;;;;5014059;28;20264;-65
2023/10/19 03:05:14;;;;;;;13.20;8.75;;;;;;;;;;5013781;28;20234;-65
2023/10/19 03:07:40;;;;;;;17.73;8.88;;;;;;;;;;5013521;28;20189;-65
2023/10/19 03:10:06;;;;;;;11.80;7.25;;;;;;;;;;5013806;28;20191;-65
2023/10/19 03:12:32;;;;;;;10.25;6.97;;;;;;;;;;5013618;28;20182;-65
2023/10/19 03:14:59;;;;;;;13.45;7.50;;;;;;;;;;5012102;28;20186;-65
2023/10/19 03:17:25;;;;;;;16.48;6.65;;;;;;;;;;5013495;28;20258;-64
2023/10/19 03:19:50;;;;;;;8.43;6.03;;;;;;;;;;5013862;28;20266;-65
2023/10/19 03:22:17;;;;;;;11.32;6.20;;;;;;;;;;5013292;28;20209;-64
2023/10/19 03:24:43;;;;;;;10.00;6.60;;;;;;;;;;5013476;28;20229;-65
2023/10/19 03:27:13;;;;;;;8.48;5.80;;;;;;;;;;5012973;28;20734;-65
2023/10/19 03:29:38;;;;;;;6.95;5.47;;;;;;;;;;5012169;28;20175;-65
2023/10/19 03:32:05;;;;;;;9.65;5.10;;;;;;;;;;5010657;28;20210;-64
2023/10/19 03:34:32;;;;;;;7.68;4.32;;;;;;;;;;5011439;28;20171;-65
2023/10/19 03:36:57;;;;;;;5.82;4.10;;;;;;;;;;5007824;28;20556;-65
2023/10/19 03:39:23;;;;;;;9.90;4.45;;;;;;;;;;5012070;28;20182;-65
2023/10/19 03:41:51;;;;;;;7.47;3.60;;;;;;;;;;5009217;28;20199;-66
2023/10/19 03:46:55;;;;;;;7.70;3.30;;;;;;;;;;5011535;28;20655;-64
2023/10/19 03:49:21;;;;;;;7.10;3.90;;;;;;;;;;5013075;28;20170;-64
2023/10/19 03:54:41;;;;;;;5.03;2.60;;;;;;;;;;4992561;28;20191;-65
2023/10/19 03:57:11;;;;;;;5.13;2.13;;;;;;;;;;5011025;28;20186;-65
2023/10/19 03:59:37;;;;;;;6.18;2.65;;;;;;;;;;5012865;28;20637;-66
2023/10/19 04:02:10;;;;;;;6.18;2.17;;;;;;;;;;5011341;28;20258;-66
2023/10/19 04:04:36;;;;;;;3.78;1.90;;;;;;;;;;5010149;28;20669;-66
2023/10/19 04:07:10;;;;;;;3.70;1.65;;;;;;;;;;5011632;28;20187;-66
2023/10/19 04:09:40;;;;;;;3.00;1.58;;;;;;;;;;5012019;28;20175;-66
2023/10/19 04:12:06;;;;;;;4.78;2.40;;;;;;;;;;5010203;28;20202;-66
2023/10/19 04:14:31;;;;;;;3.42;1.60;;;;;;;;;;5012526;28;20178;-66
2023/10/19 04:16:56;;;;;;;4.95;1.73;;;;;;;;;;5011546;28;20205;-66
2023/10/19 04:19:21;;;;;;;5.20;1.67;;;;;;;;;;5011427;28;20847;-67
2023/10/19 04:21:47;;;;;;;6.10;1.85;;;;;;;;;;5010635;28;20229;-66
2023/10/19 04:24:13;;;;;;;5.03;1.40;;;;;;;;;;5011555;28;20171;-67
2023/10/19 04:26:38;;;;;;;4.70;1.67;;;;;;;;;;5010337;28;20231;-67
2023/10/19 04:29:10;;;;;;;4.43;1.83;;;;;;;;;;5011767;28;20206;-67
2023/10/19 04:31:37;;;;;;;3.47;1.50;;;;;;;;;;5010848;28;20206;-65
2023/10/19 04:34:07;;;;;;;2.60;1.33;;;;;;;;;;5007894;28;20202;-66
2023/10/19 04:36:33;;;;;;;4.47;1.63;;;;;;;;;;5011280;28;20183;-66
2023/10/19 04:38:59;;;;;;;3.80;1.60;;;;;;;;;;5011390;28;20189;-66
2023/10/19 04:41:27;;;;;;;5.70;1.85;;;;;;;;;;5008568;28;20211;-67
2023/10/19 04:43:52;;;;;;;5.50;1.50;;;;;;;;;;5011727;28;20262;-66
2023/10/19 04:46:18;;;;;;;2.80;1.25;;;;;;;;;;5011383;28;20274;-66
2023/10/19 04:48:44;;;;;;;8.75;1.55;;;;;;;;;;5010584;28;20178;-67
2023/10/19 04:51:09;;;;;;;4.68;1.45;;;;;;;;;;5011486;28;20588;-66
2023/10/19 04:53:35;;;;;;;4.25;1.40;;;;;;;;;;5011767;28;20199;-67
2023/10/19 04:56:01;;;;;;;4.18;1.27;;;;;;;;;;5011555;28;20190;-67
2023/10/19 04:58:27;;;;;;;3.78;1.48;;;;;;;;;;5011553;28;20666;-66
2023/10/19 05:00:53;;;;;;;2.75;1.50;;;;;;;;;;5011551;28;20199;-66
2023/10/19 05:03:18;;;;;;;4.97;1.25;;;;;;;;;;5011071;28;20186;-66
2023/10/19 05:05:44;;;;;;;2.13;1.30;;;;;;;;;;5011701;28;20195;-66
2023/10/19 05:08:09;;;;;;;2.35;1.42;;;;;;;;;;5011282;28;20187;-66
2023/10/19 05:10:34;;;;;;;3.85;1.70;;;;;;;;;;5011645;28;20213;-66
2023/10/19 05:12:59;;;;;;;6.75;1.23;;;;;;;;;;5009516;28;20175;-66
2023/10/19 05:15:25;;;;;;;2.40;1.05;;;;;;;;;;5011292;28;20194;-66
2023/10/19 05:17:50;;;;;;;4.22;1.25;;;;;;;;;;5010712;28;20228;-67
2023/10/19 05:20:15;;;;;;;2.72;1.25;;;;;;;;;;5011226;28;20231;-66
2023/10/19 05:22:40;;;;;;;3.75;1.20;;;;;;;;;;5011180;28;20664;-66
2023/10/19 05:25:07;;;;;;;5.78;1.30;;;;;;;;;;5011182;28;20245;-66
2023/10/19 05:27:32;;;;;;;4.85;2.15;;;;;;;;;;5009835;28;20171;-66
2023/10/19 05:29:58;;;;;;;3.30;1.38;;;;;;;;;;5010539;28;20186;-66
2023/10/19 05:32:24;;;;;;;3.08;1.20;;;;;;;;;;5009270;28;20183;-66
2023/10/19 05:34:49;;;;;;;4.85;1.25;;;;;;;;;;5010970;28;20194;-66
2023/10/19 05:37:16;;;;;;;7.47;1.33;;;;;;;;;;5009626;28;20225;-66
2023/10/19 05:39:42;;;;;;;5.07;2.80;;;;;;;;;;5010456;28;20666;-66
2023/10/19 05:42:07;;;;;;;6.20;1.85;;;;;;;;;;5010108;28;20203;-66
2023/10/19 05:44:32;;;;;;;5.80;1.40;;;;;;;;;;5009598;28;20221;-66
2023/10/19 05:47:02;;;;;;;5.95;1.13;;;;;;;;;;5011792;28;20582;-66
2023/10/19 05:49:28;;;;;;;5.82;1.63;;;;;;;;;;5011990;28;20270;-67
2023/10/19 05:51:53;;;;;;;4.85;1.83;;;;;;;;;;5010043;28;20205;-66
2023/10/19 05:54:18;;;;;;;3.88;1.83;;;;;;;;;;5010009;28;20179;-67
2023/10/19 05:56:44;;;;;;;4.30;1.52;;;;;;;;;;5015517;28;20186;-66
2023/10/19 05:59:10;;;;;;;8.75;2.83;;;;;;;;;;5013063;28;20194;-67
2023/10/19 06:01:36;;;;;;;8.73;1.40;;;;;;;;;;5015707;28;20284;-67
2023/10/19 06:04:02;;;;;;;4.35;0.95;;;;;;;;;;5013421;28;20241;-67
2023/10/19 06:06:27;;;;;;;4.30;1.13;;;;;;;;;;5009931;28;20300;-66
2023/10/19 06:08:53;;;;;;;6.47;1.45;;;;;;;;;;5017272;28;20663;-67
2023/10/19 06:11:19;;;;;;;3.05;1.50;;;;;;;;;;5015416;28;20195;-67
2023/10/19 06:13:44;;;;;;;4.85;2.13;;;;;;;;;;5017745;28;20221;-66
2023/10/19 06:16:09;;;;;;;5.28;1.63;;;;;;;;;;5015457;28;20178;-66
2023/10/19 06:18:34;;;;;;;6.57;1.48;;;;;;;;;;5015463;28;20182;-66
2023/10/19 06:20:59;;;;;;;3.42;1.65;;;;;;;;;;5015035;28;20568;-67
2023/10/19 06:23:25;;;;;;;2.97;1.38;;;;;;;;;;5015927;28;20273;-66
2023/10/19 06:25:51;;;;;;;3.72;1.63;;;;;;;;;;5016224;28;20456;-66
2023/10/19 06:28:16;;;;;;;6.65;2.65;;;;;;;;;;5016191;28;20270;-66
2023/10/19 06:30:42;;;;;;;6.00;2.10;;;;;;;;;;5016438;28;20289;-66
2023/10/19 06:33:07;;;;;;;3.25;1.38;;;;;;;;;;5012899;28;20194;-66
2023/10/19 06:35:33;;;;;;;3.60;1.70;;;;;;;;;;5013069;28;20194;-66
2023/10/19 06:37:59;;;;;;;4.55;1.58;;;;;;;;;;5017164;28;20183;-66
2023/10/19 06:40:26;;;;;;;3.40;1.60;;;;;;;;;;5016449;28;20206;-67
2023/10/19 06:42:51;;;;;;;3.95;1.95;;;;;;;;;;5015162;28;20271;-66
2023/10/19 06:45:18;;;;;;;3.80;1.60;;;;;;;;;;5016007;28;20289;-66
2023/10/19 06:47:44;;;;;;;3.05;1.63;;;;;;;;;;5016260;28;20536;-66
2023/10/19 06:50:10;;;;;;;3.60;1.77;;;;;;;;;;5015736;28;20191;-66
2023/10/19 06:52:36;;;;;;;2.28;1.80;;;;;;;;;;5016013;28;20190;-67
2023/10/19 06:55:07;;;;;;;5.15;2.28;;;;;;;;;;5015961;28;20214;-66
2023/10/19 06:57:32;;;;;;;4.22;1.80;;;;;;;;;;5016099;28;20274;-66
2023/10/19 06:59:59;;;;;;;3.78;2.03;;;;;;;;;;5015817;28;20270;-66
2023/10/19 07:02:24;;;;;;;3.60;1.70;;;;;;;;;;5016405;28;20639;-66
2023/10/19 07:04:49;;;;;;;10.30;2.08;;;;;;;;;;5016194;28;20210;-66
2023/10/19 07:07:14;;;;;;;2.78;1.45;;;;;;;;;;5016637;28;20179;-66
2023/10/19 07:09:41;;;;;;;3.08;1.73;;;;;;;;;;5015399;28;20163;-66
2023/10/19 07:12:07;;;;;;;6.05;1.65;;;;;;;;;;5010888;28;20194;-66
2023/10/19 07:14:33;;;;;;;10.68;2.10;;;;;;;;;;5013485;28;20229;-66
2023/10/19 07:16:59;;;;;;;6.55;1.95;;;;;;;;;;5013150;28;20228;-66
2023/10/19 07:19:24;;;;;;;6.40;2.42;;;;;;;;;;5013070;28;20174;-66
2023/10/19 07:21:57;;;;;;;4.35;1.52;;;;;;;;;;5013354;28;20198;-66
2023/10/19 07:24:23;;;;;;;6.72;1.73;;;;;;;;;;5013273;28;20179;-66
2023/10/19 07:26:53;;;;;;;4.25;1.90;;;;;;;;;;5012169;28;20218;-66
2023/10/19 07:29:19;;;;;;;4.63;1.90;;;;;;;;;;5013414;28;20650;-66
2023/10/19 07:31:45;;;;;;;2.88;2.03;;;;;;;;;;5009295;28;20203;-66
2023/10/19 07:34:14;;;;;;;7.00;2.22;;;;;;;;;;5012048;28;20206;-66
2023/10/19 07:36:40;;;;;;;6.03;1.50;;;;;;;;;;5010572;28;20213;-66
2023/10/19 07:39:13;;;;;;;3.53;1.88;;;;;;;;;;5011558;28;20662;-66
2023/10/19 07:41:39;;;;;;;5.80;1.70;;;;;;;;;;5012314;28;20740;-66
2023/10/19 07:44:04;;;;;;;4.35;1.80;;;;;;;;;;5012858;28;20191;-65
2023/10/19 07:46:31;;;;;;;4.65;2.15;;;;;;;;;;5011078;28;20214;-65
2023/10/19 07:48:59;;;;;;;8.77;2.38;;;;;;;;;;5011682;28;20178;-66
2023/10/19 07:51:24;;;;;;;7.05;2.05;;;;;;;;;;5012078;28;20286;-66
2023/10/19 07:53:50;;;;;;;5.20;1.50;;;;;;;;;;5012852;28;20251;-65
2023/10/19 07:56:15;;;;;;;6.55;1.60;;;;;;;;;;5011260;28;20185;-66
2023/10/19 07:58:41;;;;;;;5.50;1.70;;;;;;;;;;5012038;28;20191;-66
2023/10/19 08:01:06;;;;;;;3.47;1.92;;;;;;;;;;5010839;28;20195;-66
2023/10/19 08:03:32;;;;;;;4.70;2.22;;;;;;;;;;5010106;28;21931;-65
2023/10/19 08:05:57;;;;;;;5.50;2.03;;;;;;;;;;5010034;28;20203;-66
2023/10/19 08:08:24;;;;;;;3.58;1.80;;;;;;;;;;5012488;28;20179;-65
2023/10/19 08:10:49;;;;;;;4.50;1.88;;;;;;;;;;5010499;28;20248;-65
2023/10/19 08:13:15;;;;;;;5.18;1.80;;;;;;;;;;5012752;28;20654;-66
2023/10/19 08:15:40;;;;;;;9.07;1.52;;;;;;;;;;5012005;28;20178;-65
2023/10/19 08:18:05;;;;;;;7.10;2.22;;;;;;;;;;5011797;28;20554;-66
2023/10/19 08:20:31;;;;;;;4.78;2.08;;;;;;;;;;5010317;28;20717;-66
2023/10/19 08:22:57;;;;;;;6.70;1.77;;;;;;;;;;5011546;28;20772;-66
2023/10/19 08:25:22;;;;;;;7.13;2.35;;;;;;;;;;5011797;28;20586;-65
2023/10/19 08:27:51;;;;;;;6.53;2.10;;;;;;;;;;5012285;28;20179;-67
2023/10/19 08:30:17;;;;;;;4.95;2.08;;;;;;;;;;5006298;28;20583;-66
2023/10/19 08:32:43;;;;;;;9.55;1.95;;;;;;;;;;5011490;28;20265;-66
2023/10/19 08:35:11;;;;;;;8.38;2.50;;;;;;;;;;5010092;28;20702;-66
2023/10/19 08:37:36;;;;;;;5.80;1.88;;;;;;;;;;5011247;28;20263;-66
2023/10/19 08:40:02;;;;;;;8.55;2.15;;;;;;;;;;5011682;28;20223;-66
2023/10/19 08:42:30;;;;;;;5.00;1.83;;;;;;;;;;5009582;28;20182;-66
2023/10/19 08:44:55;;;;;;;3.70;1.42;;;;;;;;;;5009909;28;20572;-68
2023/10/19 08:47:21;;;;;;;5.28;2.10;;;;;;;;;;5011824;28;20175;-67
2023/10/19 08:49:46;;;;;;;6.47;1.85;;;;;;;;;;5011164;28;20655;-66
2023/10/19 08:52:12;;;;;;;5.75;2.33;;;;;;;;;;5009963;28;20191;-66
2023/10/19 08:54:37;;;;;;;6.80;2.65;;;;;;;;;;5011930;28;20179;-66
2023/10/19 08:57:02;;;;;;;7.38;1.92;;;;;;;;;;5011045;28;20179;-66
2023/10/19 08:59:28;;;;;;;6.18;1.67;;;;;;;;;;5009180;28;20185;-65
2023/10/19 09:02:00;;;;;;;4.22;1.55;;;;;;;;;;5011071;28;20281;-66
2023/10/19 09:04:25;;;;;;;9.13;2.80;;;;;;;;;;5012086;28;20721;-66
2023/10/19 09:06:53;;;;;;;6.07;1.60;;;;;;;;;;5011376;28;20283;-66
2023/10/19 09:09:21;;;;;;;2.88;1.35;;;;;;;;;;5012051;28;20597;-66
2023/10/19 09:11:48;;;;;;;5.68;1.50;;;;;;;;;;5009437;28;20198;-66
2023/10/19 09:14:14;;;;;;;6.20;1.63;;;;;;;;;;5011915;28;20171;-66
2023/10/19 09:16:55;;;;;;;5.63;1.85;;;;;;;;;;5010894;28;20575;-66
2023/10/19 09:19:20;;;;;;;6.00;1.60;;;;;;;;;;5011056;28;20179;-65
2023/10/19 09:21:46;;;;;;;5.85;2.08;;;;;;;;;;5011308;28;20218;-65
2023/10/19 09:24:11;;;;;;;5.85;1.95;;;;;;;;;;5011143;28;20757;-66
2023/10/19 09:26:37;;;;;;;11.57;2.40;;;;;;;;;;5010966;28;20285;-66
2023/10/19 09:29:02;;;;;;;5.47;1.80;;;;;;;;;;5011454;28;20186;-67
2023/10/19 09:31:30;;;;;;;6.32;1.85;;;;;;;;;;5010799;28;20206;-66
2023/10/19 09:33:56;;;;;;;7.93;2.00;;;;;;;;;;5008270;28;20167;-66
2023/10/19 09:36:25;;;;;;;6.32;2.30;;;;;;;;;;5006658;28;20202;-66
2023/10/19 09:38:51;;;;;;;5.65;1.75;;;;;;;;;;5011103;28;20642;-66
2023/10/19 09:41:22;;;;;;;6.47;1.75;;;;;;;;;;5010044;28;20211;-66
2023/10/19 09:43:48;;;;;;;8.18;1.70;;;;;;;;;;5009886;28;20179;-66
2023/10/19 09:46:21;;;;;;;7.15;2.03;;;;;;;;;;5009345;28;20305;-66
2023/10/19 09:48:47;;;;;;;2.97;1.23;;;;;;;;;;5009991;28;20202;-66
2023/10/19 09:51:13;;;;;;;7.28;1.60;;;;;;;;;;5008523;28;20286;-66
2023/10/19 09:53:39;;;;;;;7.85;2.00;;;;;;;;;;5010258;28;20622;-65
2023/10/19 09:56:06;;;;;;;3.58;1.20;;;;;;;;;;5008732;28;20175;-66
2023/10/19 09:58:40;;;;;;;9.02;2.30;;;;;;;;;;5010129;28;20209;-66
2023/10/19 10:01:11;;;;;;;4.20;1.88;;;;;;;;;;5008799;28;20238;-66
2023/10/19 10:03:43;;;;;;;9.13;1.67;;;;;;;;;;5009555;28;20197;-66
2023/10/19 10:06:08;;;;;;;4.97;1.95;;;;;;;;;;5008393;28;20221;-67
2023/10/19 10:08:36;;;;;;;7.80;1.73;;;;;;;;;;5010601;28;20175;-66
2023/10/19 10:11:13;;;;;;;5.65;1.63;;;;;;;;;;5008040;28;20697;-66
2023/10/19 10:13:40;;;;;;;8.77;2.00;;;;;;;;;;5006608;28;20702;-66
2023/10/19 10:16:06;;;;;;;8.05;1.52;;;;;;;;;;5007191;28;22040;-66
2023/10/19 10:18:32;;;;;;;4.75;1.50;;;;;;;;;;5005759;28;20206;-66
2023/10/19 10:21:15;;;;;;;3.28;1.77;;;;;;;;;;5007241;28;20203;-66
2023/10/19 10:23:42;;;;;;;8.85;1.95;;;;;;;;;;5009777;28;20175;-67
2023/10/19 10:26:08;;;;;;;9.45;1.77;;;;;;;;;;5008349;28;20282;-66
2023/10/19 10:28:35;;;;;;;6.90;1.30;;;;;;;;;;5005974;28;20677;-65
2023/10/19 10:31:07;;;;;;;5.80;2.08;;;;;;;;;;5004758;28;20232;-65
2023/10/19 10:33:44;;;;;;;3.05;2.22;;;;;;;;;;5007309;28;20171;-66
2023/10/19 10:36:11;;;;;;;8.65;2.00;;;;;;;;;;5006285;28;20178;-66
2023/10/19 10:38:36;;;;;;;8.15;2.15;;;;;;;;;;5008478;28;20240;-66
2023/10/19 10:41:01;;;;;;;8.77;2.17;;;;;;;;;;5008715;28;20211;-66
2023/10/19 10:43:27;;;;;;;5.90;1.70;;;;;;;;;;5010700;28;20203;-66
2023/10/19 10:45:52;;;;;;;6.13;1.63;;;;;;;;;;5007979;28;20199;-66
2023/10/19 10:48:22;;;;;;;5.65;1.75;;;;;;;;;;5013257;28;20171;-66
2023/10/19 10:50:47;;;;;;;5.35;2.22;;;;;;;;;;5013730;28;20224;-67
2023/10/19 10:53:13;;;;;;;5.82;2.22;;;;;;;;;;5012122;28;20175;-67
2023/10/19 10:55:41;;;;;;;10.77;1.98;;;;;;;;;;5011106;28;20221;-67
2023/10/19 10:58:07;;;;;;;8.60;2.30;;;;;;;;;;5012656;28;20195;-67
2023/10/19 11:00:34;;;;;;;6.05;1.60;;;;;;;;;;5013601;28;20326;-67
2023/10/19 11:03:09;;;;;;;5.65;1.60;;;;;;;;;;5013677;28;20172;-67
2023/10/19 11:05:35;;;;;;;6.75;1.67;;;;;;;;;;5013455;28;20206;-66
2023/10/19 11:08:03;;;;;;;5.50;1.65;;;;;;;;;;5013505;28;20171;-66
2023/10/19 11:10:29;;;;;;;3.55;1.60;;;;;;;;;;5013701;28;20714;-66
2023/10/19 11:13:05;;;;;;;9.48;2.28;;;;;;;;;;5013397;28;20207;-67
2023/10/19 11:15:31;;;;;;;8.38;1.77;;;;;;;;;;5013255;28;20167;-66
2023/10/19 11:17:57;;;;;;;9.75;2.42;;;;;;;;;;5013009;28;20183;-66
2023/10/19 11:20:23;;;;;;;10.50;2.85;;;;;;;;;;5013447;28;20203;-65
2023/10/19 11:22:53;;;;;;;4.63;1.65;;;;;;;;;;5013565;28;20665;-66
2023/10/19 11:25:19;;;;;;;6.63;1.52;;;;;;;;;;5013463;28;20191;-67
2023/10/19 11:27:44;;;;;;;5.70;1.98;;;;;;;;;;5010629;28;20178;-67
2023/10/19 11:30:11;;;;;;;8.10;2.03;;;;;;;;;;5012449;28;20199;-67
2023/10/19 11:32:40;;;;;;;9.18;1.60;;;;;;;;;;5009644;28;20167;-67
2023/10/19 11:35:08;;;;;;;4.38;1.30;;;;;;;;;;5009119;28;20186;-67
2023/10/19 11:37:47;;;;;;;10.63;2.10;;;;;;;;;;5012390;28;20178;-65
2023/10/19 11:40:12;;;;;;;7.00;2.28;;;;;;;;;;5011713;28;20205;-66
2023/10/19 11:42:37;;;;;;;7.63;1.58;;;;;;;;;;5012458;28;20179;-66
2023/10/19 11:45:02;;;;;;;9.40;1.53;;;;;;;;;;5011492;28;20740;-67
2023/10/19 11:47:28;;;;;;;7.75;1.90;;;;;;;;;;5013459;28;20404;-67
2023/10/19 11:49:53;;;;;;;5.65;1.70;;;;;;;;;;5012085;28;20182;-66
2023/10/19 11:52:19;;;;;;;8.38;1.60;;;;;;;;;;5013099;28;20254;-66
2023/10/19 11:54:44;;;;;;;8.20;2.20;;;;;;;;;;5010474;28;20195;-67
2023/10/19 11:57:09;;;;;;;7.30;1.77;;;;;;;;;;5012121;28;20266;-66
2023/10/19 11:59:35;;;;;;;6.68;1.60;;;;;;;;;;5010142;28;20553;-67
2023/10/19 12:02:03;;;;;;;12.63;3.03;;;;;;;;;;5011551;28;20213;-67
2023/10/19 12:04:29;;;;;;;10.27;2.47;;;;;;;;;;5010978;28;20440;-68
2023/10/19 12:06:55;;;;;;;4.53;1.42;;;;;;;;;;5011522;28;20689;-67
2023/10/19 12:09:24;;;;;;;9.85;1.88;;;;;;;;;;5012124;28;20248;-67
2023/10/19 12:11:49;;;;;;;11.43;1.98;;;;;;;;;;5011358;28;20198;-67
2023/10/19 12:14:14;;;;;;;10.23;2.00;;;;;;;;;;5011248;28;20175;-67
2023/10/19 12:16:40;;;;;;;6.22;1.55;;;;;;;;;;5010294;28;20250;-66
2023/10/19 12:19:05;;;;;;;5.30;1.95;;;;;;;;;;5011885;28;20172;-66
2023/10/19 12:21:33;;;;;;;4.82;1.20;;;;;;;;;;5010547;28;20205;-67
2023/10/19 12:24:01;;;;;;;7.03;1.52;;;;;;;;;;5011161;28;20202;-67
2023/10/19 12:26:26;;;;;;;12.05;2.35;;;;;;;;;;5011476;28;20206;-67
2023/10/19 12:28:51;;;;;;;7.85;1.75;;;;;;;;;;5011954;28;20604;-67
2023/10/19 12:31:18;;;;;;;16.37;2.10;;;;;;;;;;5011538;28;20245;-66
2023/10/19 12:33:44;;;;;;;6.07;1.80;;;;;;;;;;5008792;28;20412;-66
2023/10/19 12:36:31;;;;;;;5.00;2.42;;;;;;;;;;5009935;28;20616;-66
2023/10/19 12:38:57;;;;;;;5.43;1.60;;;;;;;;;;5010622;28;20182;-67
2023/10/19 12:41:22;;;;;;;14.60;2.35;;;;;;;;;;5010019;28;20206;-67
2023/10/19 12:43:47;;;;;;;7.55;1.60;;;;;;;;;;5011032;28;20175;-66
2023/10/19 12:46:13;;;;;;;7.68;2.15;;;;;;;;;;5009544;28;20581;-66
2023/10/19 12:48:39;;;;;;;6.50;1.52;;;;;;;;;;5006224;28;20167;-67
2023/10/19 12:51:06;;;;;;;5.85;1.67;;;;;;;;;;5008632;28;20487;-67
2023/10/19 12:53:32;;;;;;;9.02;1.85;;;;;;;;;;5010260;28;20609;-67
2023/10/19 12:55:58;;;;;;;7.45;1.38;;;;;;;;;;5010639;28;20779;-67
2023/10/19 12:58:23;;;;;;;7.57;2.45;;;;;;;;;;5010433;28;20175;-67
2023/10/19 13:00:48;;;;;;;5.72;1.30;;;;;;;;;;5011892;28;20199;-66
2023/10/19 13:03:14;;;;;;;10.48;2.10;;;;;;;;;;5010420;28;20540;-66
2023/10/19 13:05:40;;;;;;;7.32;1.83;;;;;;;;;;5011782;28;20191;-66
2023/10/19 13:08:06;;;;;;;9.07;2.80;;;;;;;;;;5008600;28;20175;-67
2023/10/19 13:10:35;;;;;;;5.22;1.85;;;;;;;;;;5009995;28;20206;-67
2023/10/19 13:13:03;;;;;;;10.63;2.53;;;;;;;;;;5011028;28;20179;-66
2023/10/19 13:15:30;;;;;;;7.15;2.33;;;;;;;;;;5011143;28;20233;-66
2023/10/19 13:17:56;;;;;;;10.00;2.42;;;;;;;;;;5011126;28;20175;-66
2023/10/19 13:20:21;;;;;;;10.77;2.70;;;;;;;;;;5011603;28;20210;-67
2023/10/19 13:22:47;;;;;;;9.82;2.42;;;;;;;;;;5011549;28;20205;-66
2023/10/19 13:25:18;;;;;;;7.50;2.10;;;;;;;;;;5011181;28;20265;-66
2023/10/19 13:27:46;;;;;;;7.47;1.95;;;;;;;;;;5014564;28;20167;-66
2023/10/19 13:30:12;;;;;;;11.80;2.00;;;;;;;;;;5009965;28;20197;-66
2023/10/19 13:32:37;;;;;;;7.65;2.25;;;;;;;;;;5010573;28;20183;-67
2023/10/19 13:35:03;;;;;;;12.27;2.05;;;;;;;;;;5008289;28;20585;-67
2023/10/19 13:37:29;;;;;;;7.78;2.65;;;;;;;;;;5011983;28;20435;-67
2023/10/19 13:39:54;;;;;;;5.80;1.73;;;;;;;;;;5012162;28;20241;-67
2023/10/19 13:42:20;;;;;;;6.95;2.45;;;;;;;;;;5012485;28;20187;-66
2023/10/19 13:44:46;;;;;;;8.85;2.55;;;;;;;;;;5011433;28;20175;-67
2023/10/19 13:47:11;;;;;;;6.03;1.52;;;;;;;;;;5012087;28;20191;-66
2023/10/19 13:49:37;;;;;;;5.25;1.67;;;;;;;;;;5012536;28;20254;-67
2023/10/19 13:52:04;;;;;;;8.90;2.83;;;;;;;;;;5012498;28;20218;-67
2023/10/19 13:54:29;;;;;;;3.90;1.63;;;;;;;;;;5009140;28;20175;-67
2023/10/19 13:56:55;;;;;;;8.25;2.55;;;;;;;;;;5008471;28;20190;-66
2023/10/19 13:59:20;;;;;;;7.18;2.03;;;;;;;;;;5011637;28;20226;-68
2023/10/19 14:01:45;;;;;;;10.00;3.20;;;;;;;;;;5009664;28;20205;-66
2023/10/19 14:04:11;;;;;;;6.20;2.45;;;;;;;;;;5008269;28;20564;-66
2023/10/19 14:06:37;;;;;;;13.18;2.60;;;;;;;;;;5011476;28;20194;-67
2023/10/19 14:09:04;;;;;;;7.90;2.60;;;;;;;;;;5009375;28;20229;-67
2023/10/19 14:11:30;;;;;;;9.80;2.25;;;;;;;;;;5010466;28;20199;-66
2023/10/19 14:13:55;;;;;;;6.65;2.63;;;;;;;;;;5008440;28;20259;-67
2023/10/19 14:16:22;;;;;;;8.02;2.85;;;;;;;;;;5006295;28;20194;-66
2023/10/19 14:18:48;;;;;;;9.20;3.33;;;;;;;;;;5010734;28;20191;-66
2023/10/19 14:21:14;;;;;;;7.88;3.03;;;;;;;;;;5011698;28;20217;-66
2023/10/19 14:23:40;;;;;;;7.40;3.13;;;;;;;;;;5013745;28;20601;-66
2023/10/19 14:26:06;;;;;;;11.18;3.17;;;;;;;;;;5012465;28;20274;-67
2023/10/19 14:28:31;;;;;;;7.90;3.63;;;;;;;;;;5014798;28;20178;-67
2023/10/19 14:30:57;;;;;;;8.02;2.78;;;;;;;;;;5012727;28;20210;-68
2023/10/19 14:33:22;;;;;;;9.60;3.03;;;;;;;;;;5014796;28;20300;-68
2023/10/19 14:35:47;;;;;;;7.68;3.42;;;;;;;;;;5011903;28;20179;-68
2023/10/19 14:38:14;;;;;;;9.00;3.47;;;;;;;;;;5013614;28;20190;-68
2023/10/19 14:40:44;;;;;;;10.68;2.83;;;;;;;;;;5012922;28;20584;-68
2023/10/19 14:43:10;;;;;;;9.07;2.83;;;;;;;;;;5013712;28;20183;-68
2023/10/19 14:45:36;;;;;;;10.43;3.20;;;;;;;;;;5011897;28;20203;-68
2023/10/19 14:48:04;;;;;;;11.23;3.17;;;;;;;;;;5014245;28;20171;-66
2023/10/19 14:50:29;;;;;;;7.68;2.90;;;;;;;;;;5012458;28;20212;-67
2023/10/19 14:52:55;;;;;;;8.07;3.08;;;;;;;;;;5014309;28;20258;-67
2023/10/19 14:55:20;;;;;;;7.88;3.13;;;;;;;;;;5013205;28;20191;-67
2023/10/19 14:57:54;;;;;;;8.77;3.40;;;;;;;;;;5012555;28;20186;-67